MSC Annamaria — H3HN — position and weather

sailwx.info

Track history (hours):
 
Tides and Currents Weather Stations Pressure Air Temp Water Temp Dewpoint Dewpoint Depression Visibility Wind Speed Wind Dir Waves Ship Positions

MSC Annamaria

Last reported at 2015-Aug-30 20:33 UTC. Time now 2015-Aug-31 17:49 UTC.
Position N 37°53' E 015°42'.

Length 188 m; draft 8.9 m.

Type: Cargo ship. MMSI: 353852000.

Date/timePositionNaut miles runAvg speedWind from/ knotsBaromVisibWave heightAir tempDewpointWater temp
2015-Aug-30 20:33N 37°53' E 015°42'1312.7
2015-Aug-30 19:33N 38°04' E 015°35'1111.3
2015-Aug-30 18:33N 38°15' E 015°39'9 9.4
2015-Aug-30 17:33N 38°23' E 015°47'8 7.1
2015-Aug-30 16:30N 38°27' E 015°54'0 0.0
2015-Aug-30 15:31N 38°27' E 015°54'0 0.0
2015-Aug-30 14:26N 38°27' E 015°54'0 0.0
2015-Aug-30 13:26N 38°27' E 015°54'0 0.0
2015-Aug-30 12:30N 38°27' E 015°54'0 0.0
2015-Aug-30 11:29N 38°27' E 015°54'0 0.0
2015-Aug-30 10:26N 38°27' E 015°54'0 0.0
2015-Aug-30 09:32N 38°27' E 015°54'0 0.0
2015-Aug-30 08:32N 38°27' E 015°54'0 0.0
2015-Aug-30 07:26N 38°27' E 015°54'0 0.0
2015-Aug-30 06:32N 38°27' E 015°54'0 0.0
2015-Aug-30 05:25N 38°27' E 015°54'0 0.0
2015-Aug-30 04:31N 38°27' E 015°54'0 0.0
2015-Aug-30 03:33N 38°27' E 015°54'0 0.0
2015-Aug-30 02:28N 38°27' E 015°54'0 0.0
2015-Aug-30 01:33N 38°27' E 015°54'0 0.0
2015-Aug-30 00:33N 38°27' E 015°54'0 0.0
2015-Aug-29 23:32N 38°27' E 015°54'0 0.0
2015-Aug-29 22:32N 38°27' E 015°54'0 0.0
2015-Aug-29 21:32N 38°27' E 015°54'0 0.0
2015-Aug-29 20:27N 38°27' E 015°54'0 0.0
2015-Aug-29 19:32N 38°27' E 015°54'0 0.0
2015-Aug-29 18:33N 38°27' E 015°54'0 0.0
2015-Aug-29 17:29N 38°27' E 015°54'0 0.0
2015-Aug-29 16:32N 38°27' E 015°54'0 0.0
2015-Aug-29 15:31N 38°27' E 015°54'0 0.0
2015-Aug-29 14:27N 38°27' E 015°54'0 0.0
2015-Aug-29 13:32N 38°27' E 015°54'0 0.0
2015-Aug-29 12:21N 38°27' E 015°54'0 0.0
2015-Aug-29 11:26N 38°27' E 015°54'0 0.0
2015-Aug-29 10:31N 38°27' E 015°54'0 0.0
2015-Aug-29 09:33N 38°27' E 015°54'0 0.0
2015-Aug-29 08:33N 38°27' E 015°54'0 0.0
2015-Aug-29 07:33N 38°27' E 015°54'0 0.0
2015-Aug-29 06:31N 38°27' E 015°54'0 0.0
2015-Aug-29 05:33N 38°27' E 015°54'3 3.3
2015-Aug-29 04:33N 38°28' E 015°50'1 0.6
2015-Aug-29 03:33N 38°27' E 015°49'7 7.3
2015-Aug-29 02:33N 38°20' E 015°46'1212.5
2015-Aug-29 01:33N 38°10' E 015°37'1212.4
2015-Aug-29 00:33N 37°57' E 015°37'1514.4
2015-Aug-28 23:31N 37°50' E 015°53'3314.8
2015-Aug-28 21:18N 37°41' E 016°33'1614.8
2015-Aug-28 20:12N 37°36' E 016°52'31313.3
2015-Aug-27 20:34N 36°46' E 023°21'1414.3
2015-Aug-27 19:33N 36°60' E 023°26'1414.1
2015-Aug-27 18:33N 37°12' E 023°35'1413.8
2015-Aug-27 17:33N 37°24' E 023°41'1414.4
2015-Aug-27 16:33N 37°39' E 023°42'1414.4
2015-Aug-27 15:33N 37°51' E 023°34'1 1.3
2015-Aug-27 14:34N 37°52' E 023°32'0 0.0
2015-Aug-27 13:33N 37°52' E 023°32'0 0.0
2015-Aug-27 12:33N 37°52' E 023°32'1 1.2
2015-Aug-27 11:33N 37°51' E 023°33'6 6.3
2015-Aug-27 10:33N 37°49' E 023°41'1111.4
2015-Aug-27 09:33N 37°39' E 023°48'1413.4
2015-Aug-27 08:30N 37°36' E 024°06'  
2015-Aug-24 10:27N 37°33' E 025°56'  
2015-Aug-21 14:33N 34°55' E 035°52'  
Track history (hours):
 
Tides and Currents Weather Stations Pressure Air Temp Water Temp Dewpoint Dewpoint Depression Visibility Wind Speed Wind Dir Waves Ship Positions

MSC Annamaria

Last reported at 2015-Aug-30 20:33 UTC. Time now 2015-Aug-31 17:49 UTC.
Position N 37°53' E 015°42'.

Length 188 m; draft 8.9 m.

Type: Cargo ship. MMSI: 353852000.

Date/timePositionNaut miles runAvg speedWind from/ knotsBaromVisibWave heightAir tempDewpointWater temp
2015-Aug-30 20:33N 37°53' E 015°42'1312.7
2015-Aug-30 19:33N 38°04' E 015°35'1111.3
2015-Aug-30 18:33N 38°15' E 015°39'9 9.4
2015-Aug-30 17:33N 38°23' E 015°47'8 7.1
2015-Aug-30 16:30N 38°27' E 015°54'0 0.0
2015-Aug-30 15:31N 38°27' E 015°54'0 0.0
2015-Aug-30 14:26N 38°27' E 015°54'0 0.0
2015-Aug-30 13:26N 38°27' E 015°54'0 0.0
2015-Aug-30 12:30N 38°27' E 015°54'0 0.0
2015-Aug-30 11:29N 38°27' E 015°54'0 0.0
2015-Aug-30 10:26N 38°27' E 015°54'0 0.0
2015-Aug-30 09:32N 38°27' E 015°54'0 0.0
2015-Aug-30 08:32N 38°27' E 015°54'0 0.0
2015-Aug-30 07:26N 38°27' E 015°54'0 0.0
2015-Aug-30 06:32N 38°27' E 015°54'0 0.0
2015-Aug-30 05:25N 38°27' E 015°54'0 0.0
2015-Aug-30 04:31N 38°27' E 015°54'0 0.0
2015-Aug-30 03:33N 38°27' E 015°54'0 0.0
2015-Aug-30 02:28N 38°27' E 015°54'0 0.0
2015-Aug-30 01:33N 38°27' E 015°54'0 0.0
2015-Aug-30 00:33N 38°27' E 015°54'0 0.0
2015-Aug-29 23:32N 38°27' E 015°54'0 0.0
2015-Aug-29 22:32N 38°27' E 015°54'0 0.0
2015-Aug-29 21:32N 38°27' E 015°54'0 0.0
2015-Aug-29 20:27N 38°27' E 015°54'0 0.0
2015-Aug-29 19:32N 38°27' E 015°54'0 0.0
2015-Aug-29 18:33N 38°27' E 015°54'0 0.0
2015-Aug-29 17:29N 38°27' E 015°54'0 0.0
2015-Aug-29 16:32N 38°27' E 015°54'0 0.0
2015-Aug-29 15:31N 38°27' E 015°54'0 0.0
2015-Aug-29 14:27N 38°27' E 015°54'0 0.0
2015-Aug-29 13:32N 38°27' E 015°54'0 0.0
2015-Aug-29 12:21N 38°27' E 015°54'0 0.0
2015-Aug-29 11:26N 38°27' E 015°54'0 0.0
2015-Aug-29 10:31N 38°27' E 015°54'0 0.0
2015-Aug-29 09:33N 38°27' E 015°54'0 0.0
2015-Aug-29 08:33N 38°27' E 015°54'0 0.0
2015-Aug-29 07:33N 38°27' E 015°54'0 0.0
2015-Aug-29 06:31N 38°27' E 015°54'0 0.0
2015-Aug-29 05:33N 38°27' E 015°54'3 3.3
2015-Aug-29 04:33N 38°28' E 015°50'1 0.6
2015-Aug-29 03:33N 38°27' E 015°49'7 7.3
2015-Aug-29 02:33N 38°20' E 015°46'1212.5
2015-Aug-29 01:33N 38°10' E 015°37'1212.4
2015-Aug-29 00:33N 37°57' E 015°37'1514.4
2015-Aug-28 23:31N 37°50' E 015°53'3314.8
2015-Aug-28 21:18N 37°41' E 016°33'1614.8
2015-Aug-28 20:12N 37°36' E 016°52'31313.3
2015-Aug-27 20:34N 36°46' E 023°21'1414.3
2015-Aug-27 19:33N 36°60' E 023°26'1414.1
2015-Aug-27 18:33N 37°12' E 023°35'1413.8
2015-Aug-27 17:33N 37°24' E 023°41'1414.4
2015-Aug-27 16:33N 37°39' E 023°42'1414.4
2015-Aug-27 15:33N 37°51' E 023°34'1 1.3
2015-Aug-27 14:34N 37°52' E 023°32'0 0.0
2015-Aug-27 13:33N 37°52' E 023°32'0 0.0
2015-Aug-27 12:33N 37°52' E 023°32'1 1.2
2015-Aug-27 11:33N 37°51' E 023°33'6 6.3
2015-Aug-27 10:33N 37°49' E 023°41'1111.4
2015-Aug-27 09:33N 37°39' E 023°48'1413.4
2015-Aug-27 08:30N 37°36' E 024°06'  
2015-Aug-24 10:27N 37°33' E 025°56'  
2015-Aug-21 14:33N 34°55' E 035°52'  

Dump ship's entire track history